createdAt,value
2018-09-19T10:27:10.103Z,65533
2018-09-19T10:30:02.392Z,15
2018-09-19T10:32:02.332Z,4632
2018-09-19T10:33:02.436Z,4665
2018-09-19T10:34:02.461Z,4634
2018-09-19T10:35:02.571Z,4647
2018-09-19T10:36:02.613Z,4677
2018-09-19T10:37:02.836Z,4670
2018-09-19T10:38:02.895Z,4657
2018-09-19T10:39:02.851Z,4656
2018-09-19T10:40:03.047Z,4687
2018-09-19T10:41:03.054Z,4673
2018-09-19T10:42:03.145Z,4701
2018-09-19T10:43:03.233Z,4673
2018-09-19T10:44:03.603Z,4640
2018-09-19T10:45:04.303Z,4695
2018-09-19T10:46:03.361Z,4734
2018-09-19T10:47:03.493Z,4766
2018-09-19T10:48:03.393Z,4750
2018-09-19T10:49:03.643Z,4827
2018-09-19T10:50:03.420Z,4834
2018-09-19T10:51:03.439Z,4833
2018-09-19T10:52:03.426Z,4706
2018-09-19T10:53:03.643Z,4843
2018-09-19T10:54:03.575Z,4770
2018-09-19T10:55:03.568Z,4918
2018-09-19T10:56:03.647Z,4865
2018-09-19T10:57:03.776Z,4934
2018-09-19T10:58:03.717Z,4889
2018-09-19T10:59:03.897Z,4997
2018-09-19T11:00:04.082Z,4987
2018-09-19T11:01:03.977Z,4970
2018-09-19T11:02:03.986Z,5074
2018-09-19T11:03:04.186Z,5106
2018-09-19T11:04:04.357Z,5100
2018-09-19T11:05:04.360Z,5080
2018-09-19T11:06:04.404Z,5060
2018-09-19T11:07:04.419Z,5048
2018-09-19T11:08:04.402Z,5037
2018-09-19T11:09:04.492Z,5113
2018-09-19T11:10:04.506Z,5098
2018-09-19T11:11:04.599Z,5039
2018-09-19T11:12:04.579Z,5093
2018-09-19T11:13:04.620Z,5066
2018-09-19T11:14:04.651Z,5100
2018-09-19T11:15:04.659Z,5124
2018-09-19T11:16:04.769Z,5133
2018-09-19T11:17:04.827Z,5164
2018-09-19T11:18:04.835Z,5254
2018-09-19T11:19:04.798Z,5186
2018-09-19T11:20:04.964Z,5143
2018-09-19T11:21:05.177Z,5215
2018-09-19T11:22:05.046Z,5245
2018-09-19T11:23:05.168Z,5269
2018-09-19T11:24:05.167Z,5356
2018-09-19T11:25:05.479Z,5358
2018-09-19T11:26:05.395Z,5249
2018-09-19T11:27:05.475Z,5324
2018-09-19T11:28:05.597Z,4894
2018-09-19T11:29:05.812Z,3313
2018-09-19T11:30:05.834Z,5345
2018-09-19T11:31:05.826Z,5334
2018-09-19T11:32:05.937Z,5328
2018-09-19T11:33:06.018Z,5315
2018-09-19T11:34:06.041Z,5346
2018-09-19T11:35:06.111Z,5311
2018-09-19T11:36:06.310Z,5384
2018-09-19T11:37:07.340Z,5347
2018-09-19T11:38:06.212Z,5309
2018-09-19T11:39:06.351Z,5370
2018-09-19T11:40:06.203Z,5316
2018-09-19T11:41:06.407Z,5290
2018-09-19T11:42:06.513Z,5298
2018-09-19T11:43:06.531Z,5301
2018-09-19T11:44:06.577Z,5296
2018-09-19T11:45:06.791Z,5309
2018-09-19T11:46:06.894Z,5231
2018-09-19T11:47:07.283Z,5244
2018-09-19T11:48:06.969Z,5244
2018-09-19T11:49:07.226Z,5256
2018-09-19T11:50:07.187Z,5347
2018-09-19T11:51:07.242Z,5338
2018-09-19T11:52:07.365Z,5282
2018-09-19T11:53:07.472Z,5328
2018-09-19T11:54:07.440Z,5274
2018-09-19T11:55:07.435Z,5298
2018-09-19T11:56:07.673Z,5330
2018-09-19T11:57:07.835Z,5246
2018-09-19T11:59:07.827Z,5400
2018-09-19T12:00:07.956Z,5403
2018-09-19T12:01:07.890Z,5407
2018-09-19T12:02:08.156Z,5412
2018-09-19T12:03:08.110Z,5446
2018-09-19T12:04:08.223Z,5480
2018-09-19T12:05:08.352Z,5435
2018-09-19T12:06:08.336Z,5420
2018-09-19T12:07:08.335Z,5366
2018-09-19T12:08:08.532Z,5480
2018-09-19T12:09:08.455Z,5494
2018-09-19T12:10:08.580Z,5479
2018-09-19T12:11:08.700Z,5484
2018-09-19T12:12:08.691Z,5422
2018-09-19T12:13:08.853Z,5479
2018-09-19T12:14:09.725Z,5473
2018-09-19T12:15:08.893Z,5456
2018-09-19T12:16:08.907Z,5465
2018-09-19T12:17:08.923Z,5464
2018-09-19T12:18:09.048Z,5460
2018-09-19T12:19:09.079Z,5458
2018-09-19T12:20:09.102Z,5468
2018-09-19T12:21:09.142Z,5452
2018-09-19T12:22:09.236Z,5459
2018-09-19T12:23:09.254Z,5459
2018-09-19T12:24:09.287Z,5453
2018-09-19T12:25:09.309Z,5444
2018-09-19T12:26:10.331Z,5435
2018-09-19T12:27:09.472Z,5460
2018-09-19T12:28:09.695Z,5460
2018-09-19T12:29:09.559Z,5461
2018-09-19T12:30:09.656Z,5458
2018-09-19T12:31:09.724Z,5428
2018-09-19T12:32:09.858Z,5475
2018-09-19T12:33:10.113Z,5451
2018-09-19T12:34:09.994Z,5454
2018-09-19T12:35:09.925Z,5442
2018-09-19T12:36:09.951Z,5453
2018-09-19T12:37:09.934Z,5427
2018-09-19T12:38:09.972Z,5437
2018-09-19T12:39:10.158Z,5385
2018-09-19T12:40:10.271Z,5415
2018-09-19T12:41:10.266Z,5414
2018-09-19T12:42:10.289Z,5442
2018-09-19T12:43:10.453Z,5409
2018-09-19T12:44:10.503Z,5378
2018-09-19T12:45:10.624Z,5384
2018-09-19T12:46:10.585Z,5293
2018-09-19T12:47:10.812Z,5330
2018-09-19T12:48:10.641Z,5349
2018-09-19T12:49:10.895Z,5352
2018-09-19T12:50:10.813Z,5362
2018-09-19T12:51:10.852Z,5360
2018-09-19T12:52:10.957Z,5362
2018-09-19T12:53:11.078Z,5346
2018-09-19T12:54:11.126Z,5336
2018-09-19T12:55:11.228Z,5319
2018-09-19T12:56:11.276Z,5334
2018-09-19T12:57:11.310Z,5311
2018-09-19T12:58:11.291Z,5300
2018-09-19T12:59:11.394Z,5306
2018-09-19T13:00:11.346Z,5283
2018-09-19T13:01:11.333Z,5282
2018-09-19T13:02:11.374Z,5272
2018-09-19T13:03:11.460Z,5246
2018-09-19T13:04:11.609Z,5239
2018-09-19T13:05:11.702Z,5237
2018-09-19T13:06:11.740Z,5239
2018-09-19T13:07:11.924Z,5227
2018-09-19T13:08:11.782Z,5215
2018-09-19T13:09:11.931Z,5223
2018-09-19T13:10:12.060Z,5203
2018-09-19T13:11:12.115Z,5201
2018-09-19T13:12:12.169Z,5161
2018-09-19T13:13:12.251Z,5194
2018-09-19T13:14:12.359Z,5207
2018-09-19T13:15:12.373Z,5191
2018-09-19T13:16:12.457Z,5207
2018-09-19T13:17:12.513Z,5200
2018-09-19T13:18:12.672Z,5240
2018-09-19T13:19:12.634Z,5191
2018-09-19T13:20:13.315Z,5195
2018-09-19T13:21:12.821Z,5226
2018-09-19T13:22:12.782Z,5236
2018-09-19T13:23:12.823Z,5254
2018-09-19T13:24:12.928Z,5285
2018-09-19T13:25:13.144Z,5293
2018-09-19T13:26:13.046Z,5338
2018-09-19T13:27:13.261Z,5348
2018-09-19T13:28:13.244Z,5388
2018-09-19T13:29:13.379Z,5505
2018-09-19T13:30:13.530Z,5591
2018-09-19T13:31:13.498Z,5717
2018-09-19T13:32:13.515Z,6142
2018-09-19T13:33:13.612Z,5987
2018-09-19T13:34:13.568Z,5878
2018-09-19T13:35:13.595Z,5877
2018-09-19T13:36:13.688Z,6067
2018-09-19T13:37:13.744Z,6145
2018-09-19T13:38:13.864Z,6185
2018-09-19T13:39:13.938Z,6237
2018-09-19T13:40:14.006Z,6164
2018-09-19T13:41:14.149Z,6252
2018-09-19T13:42:14.277Z,6301
2018-09-19T13:43:14.315Z,6304
2018-09-19T13:44:14.478Z,6391
2018-09-19T13:45:14.657Z,6498
2018-09-19T13:46:14.492Z,6474
2018-09-19T13:47:14.476Z,6432
2018-09-19T13:48:14.614Z,6459
2018-09-19T13:49:14.768Z,6446
2018-09-19T13:50:14.682Z,6317
2018-09-19T13:51:14.763Z,6279
2018-09-19T13:52:14.848Z,6164
2018-09-19T13:53:14.784Z,6418
2018-09-19T13:54:14.837Z,6415
2018-09-19T13:55:14.888Z,6368
2018-09-19T13:56:15.052Z,6285
2018-09-19T13:57:15.066Z,6427
2018-09-19T13:58:15.188Z,6662
2018-09-19T13:59:15.293Z,6729
2018-09-19T14:00:16.334Z,6661
2018-09-19T14:01:15.402Z,6557
2018-09-19T14:02:15.681Z,6441
2018-09-19T14:03:15.531Z,6398
2018-09-19T14:04:15.631Z,6409
2018-09-19T14:05:15.778Z,6402
2018-09-19T14:06:15.668Z,6254
2018-09-19T14:07:15.932Z,6223
2018-09-19T14:08:15.765Z,6402
2018-09-19T14:09:15.866Z,6298
2018-09-19T14:10:16.060Z,6296
2018-09-19T14:11:16.159Z,6216
2018-09-19T14:12:16.521Z,6453
2018-09-19T14:13:16.424Z,6561
2018-09-19T14:14:16.355Z,6588
2018-09-19T14:15:16.523Z,6571
2018-09-19T14:16:16.464Z,6591
2018-09-19T14:17:16.515Z,6407
2018-09-19T14:18:16.637Z,6242
2018-09-19T14:19:16.753Z,6082
2018-09-19T14:20:16.768Z,6017
2018-09-19T14:21:16.840Z,5964
2018-09-19T14:22:16.989Z,5958
2018-09-19T14:23:16.909Z,5887
2018-09-19T14:24:17.056Z,5936
2018-09-19T14:25:17.149Z,5891
2018-09-19T14:26:17.312Z,5905
2018-09-19T14:27:17.314Z,5944
2018-09-19T14:28:17.489Z,5996
2018-09-19T14:29:17.463Z,6136
2018-09-19T14:30:17.644Z,6264
2018-09-19T14:31:17.601Z,6252
2018-09-19T14:32:17.894Z,5851
2018-09-19T14:33:17.733Z,5927
2018-09-19T14:34:17.861Z,5843
2018-09-19T14:35:17.962Z,5629
2018-09-19T14:36:18.049Z,5622
2018-09-19T14:37:18.076Z,5593
2018-09-19T14:38:18.104Z,5679
2018-09-19T14:39:18.167Z,5771
2018-09-19T14:40:18.180Z,5789
2018-09-19T14:41:18.316Z,5837
2018-09-19T14:42:18.456Z,5835
2018-09-19T14:43:18.391Z,5816
2018-09-19T14:49:12.313Z,5683
2018-09-19T14:50:12.386Z,5627
2018-09-19T14:51:51.831Z,5563
2018-09-19T14:53:49.706Z,5549
2018-09-19T15:14:28.278Z,65535
2018-09-19T15:15:28.413Z,65535
2018-09-19T15:22:12.201Z,65535
2018-09-19T15:23:12.610Z,65535
2018-09-19T15:24:12.361Z,65535
2018-09-19T15:25:12.399Z,65535
2018-09-19T15:26:12.735Z,65535
2018-09-19T15:27:12.418Z,65535
2018-09-19T15:28:12.514Z,65535
2018-09-19T15:29:12.665Z,65535
2018-09-19T15:30:12.895Z,65535
2018-09-19T15:31:12.810Z,65535
2018-09-19T15:32:12.931Z,65535
2018-09-19T15:33:12.863Z,64744
2018-09-19T15:34:12.874Z,65535
2018-09-19T15:35:12.872Z,65535
2018-09-19T15:36:13.089Z,65535
2018-09-19T15:37:13.137Z,64912
2018-09-19T15:38:13.183Z,60960
2018-09-19T15:39:13.265Z,62576
2018-09-19T15:40:13.428Z,59472
2018-09-19T15:41:13.631Z,59048
2018-09-19T15:42:13.514Z,57832
2018-09-19T15:43:13.587Z,57688
2018-09-19T15:44:13.702Z,57272
2018-09-19T15:45:13.631Z,58432
2018-09-19T15:46:13.708Z,57792
2018-09-19T15:47:13.772Z,57520
2018-09-19T15:48:13.831Z,57632
2018-09-19T15:49:13.881Z,46840
2018-09-19T15:50:13.973Z,22368
2018-09-19T15:51:14.133Z,5531
2018-09-19T15:52:14.209Z,4765
2018-09-19T15:53:14.221Z,4444
2018-09-19T15:54:14.258Z,4161
2018-09-19T15:56:55.064Z,3991
2018-09-19T15:58:51.795Z,3634
2018-09-19T15:59:25.877Z,3559
2018-09-19T16:00:25.795Z,3474
2018-09-19T16:01:25.962Z,3430
2018-09-19T16:02:25.891Z,3353
2018-09-19T16:03:25.938Z,3272
2018-09-19T16:04:25.980Z,3212
2018-09-19T16:05:26.213Z,3080
2018-09-19T16:06:26.235Z,3013
2018-09-19T16:07:26.418Z,2972
2018-09-19T16:08:26.478Z,2800
2018-09-19T16:09:26.695Z,2847
2018-09-19T16:10:26.600Z,2812
2018-09-19T16:11:26.656Z,2820
2018-09-19T16:12:26.829Z,2781
2018-09-19T16:13:26.889Z,2767
2018-09-19T16:14:26.869Z,2661
2018-09-19T16:15:28.064Z,2663
2018-09-19T16:16:26.984Z,2668
2018-09-19T16:17:27.185Z,2567
2018-09-19T16:18:27.319Z,2544
2018-09-19T16:25:14.438Z,2366
2018-09-19T16:28:48.544Z,2215
2018-09-19T16:29:48.576Z,2144
2018-09-19T16:30:48.815Z,2098
2018-09-19T16:31:48.730Z,2047
2018-09-19T16:32:48.821Z,1989
2018-09-19T16:33:48.945Z,1940
2018-09-19T16:34:48.963Z,1814
2018-09-19T16:35:48.955Z,1824
2018-09-19T16:36:49.001Z,671
2018-09-19T16:37:50.170Z,1671
2018-09-19T16:41:04.573Z,1497
2018-09-19T16:41:46.752Z,1427
2018-09-19T16:42:46.897Z,1395
2018-09-19T16:43:46.980Z,1300
2018-09-19T16:44:47.102Z,1326
2018-09-19T16:45:47.434Z,1285
2018-09-19T16:48:27.925Z,1149
2018-09-19T17:20:56.703Z,166
2018-09-19T17:21:38.854Z,147
2018-09-19T17:22:39.129Z,130
2018-09-19T17:23:39.149Z,119
2018-09-19T17:24:39.270Z,109
2018-09-19T17:25:39.443Z,95
2018-09-19T17:26:39.519Z,87
2018-09-19T17:27:39.495Z,78
2018-09-19T17:28:39.587Z,71
2018-09-19T17:30:39.856Z,58
2018-09-19T17:31:39.951Z,51
2018-09-19T17:32:40.053Z,45
2018-09-19T17:33:40.097Z,40
2018-09-19T17:34:40.133Z,35
2018-09-19T17:35:40.256Z,30
2018-09-19T17:36:40.313Z,27
2018-09-19T17:37:40.555Z,23
2018-09-19T17:38:40.581Z,20
2018-09-19T17:39:40.626Z,17
2018-09-19T17:40:40.651Z,14
2018-09-19T17:41:40.934Z,12
2018-09-19T17:42:40.935Z,10
2018-09-19T17:43:40.983Z,9
2018-09-19T17:44:41.193Z,7
2018-09-19T17:45:41.379Z,5
2018-09-19T17:46:41.286Z,5
2018-09-19T17:47:41.351Z,4
2018-09-19T17:48:41.508Z,3
2018-09-19T17:49:41.657Z,3
2018-09-19T17:50:41.667Z,2
2018-09-19T17:51:41.774Z,2
2018-09-19T17:52:41.764Z,2
2018-09-19T17:53:41.809Z,2
2018-09-19T17:54:41.776Z,1
2018-09-19T17:55:41.929Z,1
2018-09-19T17:56:42.000Z,1
2018-09-19T17:57:42.008Z,1
2018-09-19T17:58:42.021Z,1
2018-09-19T17:59:42.168Z,0
2018-09-19T18:01:42.216Z,1
2018-09-19T18:02:42.249Z,1
2018-09-19T18:03:42.449Z,1
2018-09-19T18:04:42.392Z,0
2018-09-19T18:05:43.704Z,0
2018-09-19T18:06:42.578Z,0
2018-09-19T18:07:42.784Z,0
2018-09-19T18:08:42.775Z,0
2018-09-19T18:09:42.814Z,0
2018-09-19T18:10:42.965Z,0
2018-09-19T18:11:43.108Z,0
2018-09-19T18:12:43.017Z,0
2018-09-19T18:13:43.078Z,0
2018-09-19T18:14:43.176Z,0
2018-09-19T18:15:43.225Z,0
2018-09-19T18:16:43.259Z,0
2018-09-19T18:17:43.341Z,0
2018-09-19T18:18:43.492Z,0
2018-09-19T18:20:43.597Z,0
2018-09-19T18:21:43.689Z,0
2018-09-19T18:22:43.702Z,0
2018-09-19T18:23:43.838Z,0
2018-09-19T18:24:44.032Z,0
2018-09-19T18:25:44.020Z,0
2018-09-19T18:26:44.108Z,0
2018-09-19T18:27:44.179Z,0
2018-09-19T18:28:44.424Z,0
2018-09-19T18:29:44.449Z,0
2018-09-19T18:30:44.518Z,0
2018-09-19T18:31:44.666Z,0
2018-09-19T18:32:44.827Z,0
2018-09-19T18:33:44.766Z,0
2018-09-19T18:35:41.474Z,0
2018-09-19T18:36:41.600Z,0
2018-09-19T19:05:00.015Z,0
2018-09-19T19:06:00.188Z,0
2018-09-19T19:07:00.108Z,0
2018-09-19T19:08:00.245Z,0
2018-09-19T19:09:00.184Z,0
2018-09-19T19:10:00.240Z,0
2018-09-19T19:11:00.409Z,0
2018-09-19T19:12:00.354Z,0
2018-09-19T19:13:00.409Z,0
2018-09-19T19:14:00.526Z,0
2018-09-19T19:15:00.660Z,0
2018-09-19T19:16:00.604Z,0
2018-09-19T19:17:00.747Z,0
2018-09-19T19:18:00.749Z,0
2018-09-19T19:19:00.816Z,0
2018-09-19T19:20:00.814Z,0
2018-09-19T19:21:00.941Z,0
2018-09-19T19:22:01.192Z,0
2018-09-19T19:23:01.391Z,0
2018-09-19T19:24:01.188Z,0
2018-09-19T19:25:01.543Z,0
2018-09-19T19:27:01.418Z,0
2018-09-19T19:28:01.608Z,0
2018-09-19T19:29:01.629Z,0
2018-09-19T19:30:01.845Z,0
2018-09-19T19:32:01.887Z,0
2018-09-19T19:33:01.990Z,0
2018-09-19T19:34:02.084Z,0
2018-09-19T19:35:02.133Z,0
2018-09-19T19:36:02.199Z,0
2018-09-19T19:37:02.199Z,0
2018-09-19T19:38:02.300Z,0
2018-09-19T19:39:02.377Z,0
2018-09-19T19:40:02.402Z,0
2018-09-19T19:41:02.441Z,0
2018-09-19T19:42:02.530Z,0
2018-09-19T19:43:02.829Z,0
2018-09-19T19:44:02.745Z,0
2018-09-19T19:45:02.876Z,0
2018-09-19T19:46:02.948Z,0
2018-09-19T19:47:03.155Z,0
2018-09-19T19:48:03.191Z,0
2018-09-19T19:49:03.207Z,0
2018-09-19T19:50:03.386Z,0
2018-09-19T19:51:03.364Z,0
2018-09-19T19:52:03.507Z,0
2018-09-19T19:53:04.012Z,0
2018-09-19T19:54:03.794Z,0
2018-09-19T19:55:03.633Z,0
2018-09-19T19:56:03.707Z,0
2018-09-19T19:57:03.827Z,0
2018-09-19T19:58:04.129Z,0
2018-09-19T19:59:04.012Z,0
2018-09-19T20:00:04.050Z,0
2018-09-19T20:01:04.388Z,0
2018-09-19T20:02:04.307Z,0
2018-09-19T20:03:04.375Z,0
2018-09-19T20:04:04.511Z,0
2018-09-19T20:05:04.599Z,0
2018-09-19T20:06:04.767Z,0
2018-09-19T20:07:04.924Z,0
2018-09-19T20:08:05.037Z,0
2018-09-19T20:09:05.087Z,0
2018-09-19T20:10:05.028Z,0
2018-09-19T20:11:05.065Z,0
2018-09-19T20:12:05.223Z,0
2018-09-19T20:13:05.396Z,0
2018-09-19T20:14:05.308Z,0
2018-09-19T20:15:05.437Z,0
2018-09-19T20:16:05.431Z,0
2018-09-19T20:17:05.691Z,0
2018-09-19T20:18:05.645Z,0
2018-09-19T20:19:05.690Z,0
2018-09-19T20:20:05.821Z,0
2018-09-19T20:21:05.814Z,0
2018-09-19T20:22:05.920Z,0
2018-09-19T20:23:06.043Z,0
2018-09-19T20:24:06.128Z,0
2018-09-19T20:25:06.165Z,0
2018-09-19T20:27:06.316Z,0
2018-09-19T20:29:06.451Z,0
2018-09-19T20:30:06.708Z,0
2018-09-19T20:31:06.637Z,0
2018-09-19T20:33:06.740Z,0
2018-09-19T20:34:06.978Z,0
2018-09-19T20:35:07.000Z,0
2018-09-19T20:36:07.122Z,0
2018-09-19T20:37:07.193Z,0
2018-09-19T20:38:07.371Z,0
2018-09-19T20:39:07.356Z,0
2018-09-19T20:40:07.364Z,0
2018-09-19T20:41:07.616Z,0
2018-09-19T20:42:07.576Z,0
2018-09-19T20:43:07.590Z,0
2018-09-19T20:44:07.711Z,0
2018-09-19T20:45:07.877Z,0
2018-09-19T20:46:07.863Z,0
2018-09-19T20:47:07.866Z,0
2018-09-19T20:48:08.093Z,0
2018-09-19T20:49:08.040Z,0
2018-09-19T20:50:08.218Z,0
2018-09-19T20:51:08.205Z,0
2018-09-19T20:52:08.329Z,0
2018-09-19T20:53:08.459Z,0
2018-09-19T20:54:08.455Z,0
2018-09-19T20:55:08.612Z,0
2018-09-19T20:56:08.768Z,0
2018-09-19T20:57:08.765Z,0
2018-09-19T20:58:08.810Z,0
2018-09-19T20:59:08.917Z,0
2018-09-19T21:00:09.088Z,0
2018-09-19T21:01:08.991Z,0
2018-09-19T21:02:09.061Z,0
2018-09-19T21:03:09.176Z,0
2018-09-19T21:04:09.293Z,0
2018-09-19T21:05:09.471Z,0
2018-09-19T21:06:09.458Z,0
2018-09-19T21:07:09.642Z,0
2018-09-19T21:08:09.672Z,0
2018-09-19T21:10:27.709Z,0
2018-09-19T21:11:09.934Z,0
2018-09-19T21:12:09.984Z,0
2018-09-19T21:13:10.112Z,0
2018-09-19T21:14:10.216Z,0
2018-09-19T21:15:10.318Z,0
2018-09-19T21:16:10.495Z,0
2018-09-19T21:17:10.665Z,0
2018-09-19T21:18:10.550Z,0
2018-09-19T21:19:10.646Z,0
2018-09-19T21:20:10.724Z,0
2018-09-19T21:21:10.984Z,0
2018-09-19T21:22:11.042Z,0
2018-09-19T21:23:11.212Z,0
2018-09-19T21:24:11.067Z,0
2018-09-19T21:25:11.042Z,0
2018-09-19T21:26:11.090Z,0
2018-09-19T21:27:11.220Z,0
2018-09-19T21:28:11.331Z,0
2018-09-19T21:29:11.782Z,0
2018-09-19T21:30:11.529Z,0
2018-09-19T21:31:11.495Z,0
2018-09-19T21:32:11.594Z,0
2018-09-19T21:33:11.925Z,0
2018-09-19T21:34:11.710Z,0
2018-09-19T21:35:11.778Z,0
2018-09-19T21:36:11.762Z,0
2018-09-19T21:37:11.854Z,0
2018-09-19T21:38:11.982Z,0
2018-09-19T21:40:26.567Z,0
2018-09-19T21:41:26.661Z,0
2018-09-19T21:42:26.798Z,0
2018-09-19T21:43:26.967Z,0
2018-09-19T21:45:27.127Z,0
2018-09-19T21:46:27.134Z,0
2018-09-19T21:47:27.232Z,0
2018-09-19T21:48:27.325Z,0
2018-09-19T21:49:27.320Z,0
2018-09-19T21:50:27.342Z,0
2018-09-19T21:51:27.442Z,0
2018-09-19T21:52:27.672Z,0
2018-09-19T21:53:27.562Z,0
2018-09-19T21:54:27.716Z,0
2018-09-19T22:08:40.936Z,0
2018-09-19T22:08:56.929Z,0
2018-09-19T22:09:56.925Z,0
2018-09-19T22:10:57.221Z,0
2018-09-19T22:11:57.105Z,0
2018-09-19T22:12:57.283Z,0
2018-09-19T22:13:57.302Z,0
2018-09-19T22:14:57.574Z,0
2018-09-19T22:15:57.503Z,0
2018-09-19T22:16:57.595Z,0
2018-09-19T22:17:57.700Z,0
2018-09-19T22:18:57.661Z,0
2018-09-19T22:19:57.699Z,0
2018-09-19T22:20:57.946Z,0
2018-09-19T22:21:58.060Z,0
2018-09-19T22:22:58.119Z,0
2018-09-19T22:23:58.206Z,0
2018-09-19T22:24:58.219Z,0
2018-09-19T22:25:59.230Z,0
2018-09-19T22:26:58.381Z,0
2018-09-19T22:27:59.518Z,0
2018-09-19T22:29:58.655Z,0
2018-09-19T22:30:58.720Z,0
2018-09-19T22:31:58.876Z,0
2018-09-19T22:32:58.839Z,0
2018-09-19T22:33:58.946Z,0
2018-09-19T22:34:59.041Z,0
2018-09-19T22:35:58.977Z,0
2018-09-19T22:36:59.025Z,0
2018-09-19T22:37:59.089Z,0
2018-09-19T22:38:59.297Z,0
2018-09-19T22:39:59.300Z,0
2018-09-19T22:40:59.386Z,0
2018-09-19T22:41:59.467Z,0
2018-09-19T22:42:59.637Z,0
2018-09-19T22:43:59.516Z,0
2018-09-19T22:44:59.669Z,0
2018-09-19T22:45:59.815Z,0
2018-09-19T22:46:59.732Z,0
2018-09-19T22:47:59.865Z,0
2018-09-19T22:48:59.852Z,0
2018-09-19T22:49:59.971Z,0
2018-09-19T22:50:59.926Z,0
2018-09-19T22:51:59.932Z,0
2018-09-19T22:53:00.101Z,0
2018-09-19T22:54:00.080Z,0
2018-09-19T22:55:00.279Z,0
2018-09-19T22:56:00.253Z,0
2018-09-19T22:57:00.439Z,0
2018-09-19T22:58:00.438Z,0
2018-09-19T22:59:00.525Z,0
2018-09-19T23:00:00.568Z,0
2018-09-19T23:01:00.530Z,0
2018-09-19T23:02:00.727Z,0
2018-09-19T23:03:00.626Z,0
2018-09-19T23:04:00.760Z,0
2018-09-19T23:05:00.736Z,0
2018-09-19T23:06:00.713Z,0
2018-09-19T23:07:00.791Z,0
2018-09-19T23:08:01.812Z,0
2018-09-19T23:09:00.938Z,0
2018-09-19T23:10:00.935Z,0
2018-09-19T23:11:02.005Z,0
2018-09-19T23:12:01.098Z,0
2018-09-19T23:13:01.276Z,0
2018-09-19T23:14:01.336Z,0
2018-09-19T23:15:01.441Z,0
2018-09-19T23:17:01.682Z,0
2018-09-19T23:18:01.672Z,0
2018-09-19T23:19:01.682Z,0
2018-09-19T23:20:01.765Z,0
2018-09-19T23:21:01.842Z,0
2018-09-19T23:22:01.870Z,0
2018-09-19T23:23:01.938Z,0
2018-09-19T23:24:02.143Z,0
2018-09-19T23:25:02.043Z,0
2018-09-19T23:26:02.090Z,0
2018-09-19T23:27:02.166Z,0
2018-09-19T23:28:02.213Z,0
2018-09-19T23:29:02.228Z,0
2018-09-19T23:30:02.274Z,0
2018-09-19T23:31:02.372Z,0
2018-09-19T23:32:03.561Z,0
2018-09-19T23:33:02.602Z,0
2018-09-19T23:34:02.627Z,0
2018-09-19T23:35:02.709Z,0
2018-09-19T23:36:03.796Z,0
2018-09-19T23:37:02.970Z,0
2018-09-19T23:38:02.959Z,0
2018-09-19T23:39:03.200Z,0
2018-09-19T23:40:03.111Z,0
2018-09-19T23:41:03.113Z,0
2018-09-19T23:42:04.084Z,0
2018-09-19T23:43:03.323Z,0
2018-09-19T23:44:03.305Z,0
2018-09-19T23:45:03.341Z,0
2018-09-19T23:46:03.524Z,0
2018-09-19T23:47:03.676Z,0
2018-09-19T23:48:03.740Z,0
2018-09-19T23:49:03.814Z,0
2018-09-19T23:50:03.931Z,0
2018-09-19T23:51:03.832Z,0
2018-09-19T23:52:04.071Z,0
2018-09-19T23:53:04.016Z,0
2018-09-19T23:54:04.242Z,0
2018-09-19T23:55:04.291Z,0
2018-09-19T23:56:04.396Z,0
2018-09-19T23:57:04.485Z,0
2018-09-19T23:58:04.456Z,0
2018-09-19T23:59:04.516Z,0
